createdAt,value
2018-08-18T00:00:27.600Z,100611.00
2018-08-18T00:03:02.955Z,100606.59
2018-08-18T00:05:36.674Z,100609.70
2018-08-18T00:08:10.193Z,100606.90
2018-08-18T00:10:43.770Z,100614.59
2018-08-18T00:13:17.734Z,100610.39
2018-08-18T00:15:51.331Z,100604.20
2018-08-18T00:18:25.041Z,100619.00
2018-08-18T00:20:58.754Z,100617.58
2018-08-18T00:23:32.209Z,100619.91
2018-08-18T00:26:07.622Z,100621.48
2018-08-18T00:28:41.286Z,100632.02
2018-08-18T00:31:15.923Z,100640.03
2018-08-18T00:33:49.524Z,100634.82
2018-08-18T00:36:23.043Z,100638.67
2018-08-18T00:38:59.280Z,100634.05
2018-08-18T00:41:33.602Z,100634.27
2018-08-18T00:44:06.620Z,100640.13
2018-08-18T00:46:39.584Z,100640.20
2018-08-18T00:49:12.649Z,100644.14
2018-08-18T00:51:45.671Z,100636.70
2018-08-18T00:54:18.534Z,100634.85
2018-08-18T00:56:51.391Z,100634.38
2018-08-18T00:59:32.251Z,100646.02
2018-08-18T01:02:05.124Z,100648.39
2018-08-18T01:05:09.503Z,100643.62
2018-08-18T01:07:42.408Z,100643.25
2018-08-18T01:10:15.641Z,100644.92
2018-08-18T01:12:48.662Z,100644.09
2018-08-18T01:15:26.816Z,100646.73
2018-08-18T01:18:00.022Z,100653.28
2018-08-18T01:20:32.984Z,100643.69
2018-08-18T01:23:05.925Z,100645.22
2018-08-18T01:25:38.820Z,100648.73
2018-08-18T01:28:12.036Z,100640.59
2018-08-18T01:30:44.862Z,100641.19
2018-08-18T01:33:17.729Z,100643.27
2018-08-18T01:35:50.715Z,100645.23
2018-08-18T01:38:24.692Z,100640.43
2018-08-18T01:41:02.401Z,100642.67
2018-08-18T01:43:36.313Z,100641.05
2018-08-18T01:46:09.721Z,100641.84
2018-08-18T01:48:43.290Z,100642.22
2018-08-18T01:51:22.640Z,100634.95
2018-08-18T01:53:56.709Z,100640.33
2018-08-18T01:56:31.568Z,100646.27
2018-08-18T01:59:05.349Z,100633.12
2018-08-18T02:01:38.966Z,100641.23
2018-08-18T02:04:12.735Z,100645.38
2018-08-18T02:06:47.489Z,100638.84
2018-08-18T02:09:21.067Z,100644.11
2018-08-18T02:11:59.871Z,100640.59
2018-08-18T02:14:33.533Z,100643.47
2018-08-18T02:17:17.151Z,100634.40
2018-08-18T02:19:51.613Z,100636.55
2018-08-18T02:22:25.370Z,100637.93
2018-08-18T02:24:59.431Z,100636.52
2018-08-18T02:27:32.398Z,100637.86
2018-08-18T02:30:14.164Z,100637.36
2018-08-18T02:32:46.978Z,100637.31
2018-08-18T02:35:20.273Z,100640.12
2018-08-18T02:37:53.218Z,100634.83
2018-08-18T02:40:26.505Z,100641.23
2018-08-18T02:42:59.458Z,100633.70
2018-08-18T02:45:33.429Z,100630.72
2018-08-18T02:48:15.379Z,100622.04
2018-08-18T02:50:54.600Z,100624.09
2018-08-18T02:53:33.365Z,100617.58
2018-08-18T02:56:06.338Z,100616.27
2018-08-18T02:58:39.245Z,100612.39
2018-08-18T03:01:12.993Z,100607.75
2018-08-18T03:03:46.068Z,100608.40
2018-08-18T03:06:19.049Z,100604.05
2018-08-18T03:08:51.953Z,100599.28
2018-08-18T03:11:24.915Z,100607.95
2018-08-18T03:13:57.877Z,100602.45
2018-08-18T03:16:30.853Z,100602.36
2018-08-18T03:19:03.846Z,100600.86
2018-08-18T03:21:44.187Z,100586.97
2018-08-18T03:24:21.435Z,100588.34
2018-08-18T03:26:57.787Z,100580.75
2018-08-18T03:29:32.854Z,100573.79
2018-08-18T03:32:05.726Z,100576.20
2018-08-18T03:34:38.687Z,100574.94
2018-08-18T03:37:23.941Z,100569.20
2018-08-18T03:39:56.834Z,100568.19
2018-08-18T03:42:37.117Z,100565.55
2018-08-18T03:45:10.944Z,100560.56
2018-08-18T03:47:44.007Z,100553.95
2018-08-18T03:50:16.938Z,100552.63
2018-08-18T03:52:49.945Z,100549.84
2018-08-18T03:55:30.508Z,100541.42
2018-08-18T03:58:03.327Z,100535.48
2018-08-18T04:00:37.026Z,100531.81
2018-08-18T04:03:10.038Z,100531.98
2018-08-18T04:05:43.082Z,100521.20
2018-08-18T04:08:16.534Z,100519.39
2018-08-18T04:10:49.611Z,100530.06
2018-08-18T04:13:22.484Z,100527.28
2018-08-18T04:15:55.409Z,100522.52
2018-08-18T04:18:29.610Z,100527.06
2018-08-18T04:21:02.597Z,100520.20
2018-08-18T04:23:35.533Z,100512.73
2018-08-18T04:26:08.538Z,100507.11
2018-08-18T04:28:42.398Z,100508.91
2018-08-18T04:31:19.083Z,100508.23
2018-08-18T04:33:52.874Z,100504.80
2018-08-18T04:36:25.819Z,100505.72
2018-08-18T04:38:59.912Z,100509.89
2018-08-18T04:41:32.759Z,100513.02
2018-08-18T04:44:05.781Z,100508.55
2018-08-18T04:46:38.751Z,100500.04
2018-08-18T04:49:11.725Z,100499.82
2018-08-18T04:51:44.608Z,100492.05
2018-08-18T04:54:17.595Z,100489.47
2018-08-18T04:56:50.559Z,100484.16
2018-08-18T04:59:26.190Z,100475.54
2018-08-18T05:01:59.132Z,100479.09
2018-08-18T05:04:33.271Z,100474.98
2018-08-18T05:07:06.523Z,100466.48
2018-08-18T05:09:39.505Z,100460.08
2018-08-18T05:12:12.423Z,100452.94
2018-08-18T05:14:45.379Z,100447.37
2018-08-18T05:17:18.928Z,100434.41
2018-08-18T05:19:55.583Z,100437.28
2018-08-18T05:22:29.398Z,100430.65
2018-08-18T05:25:02.289Z,100420.63
2018-08-18T05:27:35.715Z,100415.59
2018-08-18T05:30:09.236Z,100401.84
2018-08-18T05:32:42.946Z,100395.62
2018-08-18T05:35:16.348Z,100388.71
2018-08-18T05:37:49.450Z,100391.57
2018-08-18T05:40:22.397Z,100395.05
2018-08-18T05:42:55.258Z,100385.77
2018-08-18T05:45:32.037Z,100385.39
2018-08-18T05:48:05.115Z,100384.39
2018-08-18T05:50:38.086Z,100371.64
2018-08-18T05:53:26.642Z,100358.00
2018-08-18T05:55:59.879Z,100359.22
2018-08-18T05:58:41.100Z,100357.06
2018-08-18T06:01:25.096Z,100354.10
2018-08-18T06:04:03.009Z,100341.14
2018-08-18T06:06:35.942Z,100342.09
2018-08-18T06:09:10.796Z,100343.08
2018-08-18T06:11:43.959Z,100342.66
2018-08-18T06:14:17.338Z,100335.66
2018-08-18T06:16:50.416Z,100337.88
2018-08-18T06:19:23.314Z,100321.33
2018-08-18T06:21:56.246Z,100324.13
2018-08-18T06:24:29.183Z,100327.04
2018-08-18T06:27:02.010Z,100320.84
2018-08-18T06:29:35.019Z,100315.25
2018-08-18T06:32:10.509Z,100307.86
2018-08-18T06:34:43.625Z,100313.83
2018-08-18T06:37:16.637Z,100314.05
2018-08-18T06:39:59.181Z,100307.89
2018-08-18T06:42:42.418Z,100313.75
2018-08-18T06:45:20.267Z,100305.54
2018-08-18T06:47:53.074Z,100303.78
2018-08-18T06:50:30.582Z,100301.39
2018-08-18T06:53:03.911Z,100288.79
2018-08-18T06:55:36.919Z,100280.66
2018-08-18T06:58:11.371Z,100282.14
2018-08-18T07:00:44.259Z,100280.95
2018-08-18T07:03:26.120Z,100280.44
2018-08-18T07:05:59.037Z,100275.14
2018-08-18T07:08:32.560Z,100279.73
2018-08-18T07:11:05.760Z,100272.19
2018-08-18T07:13:38.608Z,100267.87
2018-08-18T07:16:11.691Z,100268.62
2018-08-18T07:18:44.867Z,100273.75
2018-08-18T07:21:17.828Z,100270.19
2018-08-18T07:23:50.613Z,100262.10
2018-08-18T07:26:23.538Z,100260.23
2018-08-18T07:28:56.592Z,100260.33
2018-08-18T07:31:29.685Z,100254.28
2018-08-18T07:34:02.585Z,100259.88
2018-08-18T07:36:35.492Z,100251.32
2018-08-18T07:39:09.816Z,100249.09
2018-08-18T07:41:43.886Z,100248.56
2018-08-18T07:44:16.774Z,100238.55
2018-08-18T07:46:49.852Z,100246.66
2018-08-18T07:49:22.772Z,100243.55
2018-08-18T07:51:55.756Z,100240.33
2018-08-18T07:54:28.638Z,100239.81
2018-08-18T07:57:01.446Z,100234.54
2018-08-18T07:59:34.523Z,100231.85
2018-08-18T08:02:07.554Z,100239.71
2018-08-18T08:04:40.442Z,100238.45
2018-08-18T08:07:14.138Z,100242.12
2018-08-18T08:09:47.840Z,100234.20
2018-08-18T08:12:20.779Z,100228.92
2018-08-18T08:14:53.713Z,100223.69
2018-08-18T08:17:26.805Z,100228.06
2018-08-18T08:19:59.784Z,100234.57
2018-08-18T08:22:32.648Z,100229.92
2018-08-18T08:25:05.631Z,100221.27
2018-08-18T08:27:38.642Z,100223.48
2018-08-18T08:30:13.908Z,100216.30
2018-08-18T08:32:47.311Z,100210.59
2018-08-18T08:35:20.198Z,100208.31
2018-08-18T08:37:54.941Z,100206.83
2018-08-18T08:40:28.227Z,100207.17
2018-08-18T08:43:01.070Z,100201.36
2018-08-18T08:45:33.973Z,100216.13
2018-08-18T08:48:06.915Z,100206.27
2018-08-18T08:50:39.862Z,100212.39
2018-08-18T08:53:12.825Z,100219.95
2018-08-18T08:55:45.906Z,100219.92
2018-08-18T08:58:18.873Z,100223.73
2018-08-18T09:00:51.790Z,100214.35
2018-08-18T09:03:24.607Z,100216.76
2018-08-18T09:08:52.366Z,100211.62
2018-08-18T09:11:25.579Z,100214.81
2018-08-18T09:14:03.219Z,100216.48
2018-08-18T09:16:36.370Z,100217.52
2018-08-18T09:19:15.284Z,100218.75
2018-08-18T09:21:52.178Z,100220.52
2018-08-18T09:24:27.387Z,100220.80
2018-08-18T09:27:04.729Z,100218.86
2018-08-18T09:29:51.328Z,100226.17
2018-08-18T09:32:24.228Z,100228.70
2018-08-18T09:34:57.037Z,100230.77
2018-08-18T09:37:29.914Z,100232.36
2018-08-18T09:40:02.982Z,100244.59
2018-08-18T09:42:35.855Z,100237.58
2018-08-18T09:45:08.970Z,100240.44
2018-08-18T09:47:41.990Z,100237.52
2018-08-18T09:50:15.155Z,100240.03
2018-08-18T09:52:48.148Z,100238.81
2018-08-18T09:55:21.428Z,100243.83
2018-08-18T09:57:54.307Z,100242.36
2018-08-18T10:00:56.995Z,100249.99
2018-08-18T10:03:30.234Z,100244.91
2018-08-18T10:06:03.232Z,100241.92
2018-08-18T10:08:36.236Z,100246.71
2018-08-18T10:11:09.320Z,100243.43
2018-08-18T10:13:42.105Z,100243.98
2018-08-18T10:16:15.419Z,100247.17
2018-08-18T10:18:50.558Z,100250.36
2018-08-18T10:21:23.722Z,100252.80
2018-08-18T10:23:56.619Z,100240.29
2018-08-18T10:26:29.566Z,100242.09
2018-08-18T10:29:12.793Z,100246.33
2018-08-18T10:31:56.115Z,100242.45
2018-08-18T10:34:30.391Z,100240.59
2018-08-18T10:37:05.035Z,100238.76
2018-08-18T10:39:39.218Z,100243.05
2018-08-18T10:42:17.439Z,100253.30
2018-08-18T10:44:55.153Z,100257.42
2018-08-18T10:47:29.116Z,100255.31
2018-08-18T10:50:10.892Z,100253.93
2018-08-18T10:52:52.560Z,100261.16
2018-08-18T10:55:25.713Z,100263.45
2018-08-18T10:58:04.089Z,100259.02
2018-08-18T11:00:38.223Z,100263.72
2018-08-18T11:03:11.178Z,100270.44
2018-08-18T11:05:43.933Z,100267.89
2018-08-18T11:08:16.881Z,100277.81
2018-08-18T11:10:49.876Z,100274.17
2018-08-18T11:13:22.772Z,100281.15
2018-08-18T11:15:55.783Z,100285.55
2018-08-18T11:18:28.749Z,100285.88
2018-08-18T11:21:01.705Z,100291.97
2018-08-18T11:23:34.666Z,100289.08
2018-08-18T11:26:07.708Z,100300.03
2018-08-18T11:28:40.732Z,100301.58
2018-08-18T11:31:13.772Z,100307.19
2018-08-18T11:33:47.455Z,100309.20
2018-08-18T11:36:20.376Z,100307.13
2018-08-18T11:38:54.327Z,100309.97
2018-08-18T11:41:27.698Z,100307.44
2018-08-18T11:44:00.704Z,100318.94
2018-08-18T11:46:38.093Z,100323.19
2018-08-18T11:49:11.044Z,100320.00
2018-08-18T11:51:45.119Z,100320.09
2018-08-18T11:54:18.009Z,100320.14
2018-08-18T11:56:56.897Z,100322.95
2018-08-18T11:59:29.830Z,100318.25
2018-08-18T12:02:02.994Z,100326.56
2018-08-18T12:04:36.348Z,100322.67
2018-08-18T12:07:09.173Z,100327.06
2018-08-18T12:09:45.636Z,100329.34
2018-08-18T12:12:18.927Z,100330.23
2018-08-18T12:14:51.755Z,100342.52
2018-08-18T12:17:25.703Z,100340.98
2018-08-18T12:20:04.585Z,100347.52
2018-08-18T12:22:37.812Z,100360.04
2018-08-18T12:25:22.523Z,100364.91
2018-08-18T12:27:55.659Z,100371.69
2018-08-18T12:30:35.106Z,100378.86
2018-08-18T12:33:11.541Z,100378.39
2018-08-18T12:35:45.195Z,100379.50
2018-08-18T12:38:18.140Z,100383.89
2018-08-18T12:40:54.227Z,100384.58
2018-08-18T12:43:31.348Z,100399.25
2018-08-18T12:46:04.357Z,100394.15
2018-08-18T12:48:41.346Z,100395.82
2018-08-18T12:51:16.316Z,100396.62
2018-08-18T12:53:51.722Z,100407.78
2018-08-18T12:56:26.684Z,100407.54
2018-08-18T12:58:59.595Z,100418.38
2018-08-18T13:01:46.430Z,100426.27
2018-08-18T13:04:21.012Z,100434.96
2018-08-18T13:06:54.590Z,100445.88
2018-08-18T13:09:28.565Z,100445.16
2018-08-18T13:12:03.839Z,100446.27
2018-08-18T13:14:36.704Z,100461.42
2018-08-18T13:17:10.667Z,100465.48
2018-08-18T13:19:44.032Z,100462.78
2018-08-18T13:22:17.725Z,100470.91
2018-08-18T13:24:50.620Z,100475.37
2018-08-18T13:27:23.569Z,100474.02
2018-08-18T13:29:56.471Z,100472.45
2018-08-18T13:32:30.664Z,100476.04
2018-08-18T13:35:03.620Z,100476.36
2018-08-18T13:37:36.596Z,100483.20
2018-08-18T13:40:12.519Z,100486.47
2018-08-18T13:42:45.957Z,100496.44
2018-08-18T13:45:19.318Z,100494.84
2018-08-18T13:47:52.645Z,100494.91
2018-08-18T13:50:25.452Z,100493.24
2018-08-18T13:52:58.243Z,100490.53
2018-08-18T13:55:37.538Z,100490.30
2018-08-18T13:58:12.525Z,100489.42
2018-08-18T14:00:45.526Z,100498.11
2018-08-18T14:03:31.546Z,100487.03
2018-08-18T14:06:04.566Z,100490.61
2018-08-18T14:08:37.549Z,100499.30
2018-08-18T14:11:10.399Z,100497.45
2018-08-18T14:16:28.051Z,100501.13
2018-08-18T14:19:01.222Z,100502.73
2018-08-18T14:21:34.207Z,100512.45
2018-08-18T14:24:07.162Z,100505.68
2018-08-18T14:26:41.051Z,100510.06
2018-08-18T14:29:14.140Z,100516.59
2018-08-18T14:31:47.072Z,100516.84
2018-08-18T14:34:20.397Z,100515.23
2018-08-18T14:36:54.719Z,100525.11
2018-08-18T14:39:39.299Z,100512.47
2018-08-18T14:42:12.813Z,100529.97
2018-08-18T14:44:46.035Z,100538.48
2018-08-18T14:47:19.260Z,100541.67
2018-08-18T14:49:52.783Z,100546.95
2018-08-18T14:52:26.653Z,100548.55
2018-08-18T14:54:59.621Z,100553.73
2018-08-18T14:57:32.571Z,100553.97
2018-08-18T15:00:06.042Z,100555.33
2018-08-18T15:02:39.036Z,100543.69
2018-08-18T15:05:11.957Z,100544.00
2018-08-18T15:07:48.922Z,100539.14
2018-08-18T15:10:33.184Z,100548.87
2018-08-18T15:13:06.775Z,100566.55
2018-08-18T15:15:39.945Z,100575.41
2018-08-18T15:18:16.932Z,100572.14
2018-08-18T15:20:49.975Z,100579.47
2018-08-18T15:23:22.911Z,100585.70
2018-08-18T15:25:55.855Z,100585.45
2018-08-18T15:28:30.781Z,100595.25
2018-08-18T15:31:03.691Z,100599.55
2018-08-18T15:33:37.891Z,100616.92
2018-08-18T15:36:19.668Z,100622.66
2018-08-18T15:39:07.730Z,100611.33
2018-08-18T15:41:41.197Z,100615.26
2018-08-18T15:44:15.456Z,100612.55
2018-08-18T15:46:48.427Z,100613.34
2018-08-18T15:49:21.392Z,100616.30
2018-08-18T15:51:54.427Z,100606.20
2018-08-18T15:54:29.055Z,100603.23
2018-08-18T15:57:02.723Z,100606.44
2018-08-18T15:59:35.805Z,100613.77
2018-08-18T16:02:08.959Z,100609.15
2018-08-18T16:04:41.827Z,100615.68
2018-08-18T16:07:15.561Z,100610.50
2018-08-18T16:09:49.396Z,100605.70
2018-08-18T16:12:22.853Z,100606.58
2018-08-18T16:14:56.076Z,100619.50
2018-08-18T16:17:29.307Z,100619.50
2018-08-18T16:20:03.126Z,100619.02
2018-08-18T16:22:36.308Z,100617.41
2018-08-18T16:25:10.591Z,100617.17
2018-08-18T16:27:45.767Z,100616.30
2018-08-18T16:30:19.793Z,100622.59
2018-08-18T16:33:02.335Z,100619.39
2018-08-18T16:35:38.638Z,100627.27
2018-08-18T16:38:14.023Z,100620.50
2018-08-18T16:40:50.410Z,100620.50
2018-08-18T16:43:24.408Z,100617.23
2018-08-18T16:46:03.579Z,100603.75
2018-08-18T16:48:37.766Z,100602.71
2018-08-18T16:51:13.041Z,100589.16
2018-08-18T16:53:46.914Z,100593.27
2018-08-18T16:56:32.811Z,100602.23
2018-08-18T16:59:07.932Z,100600.63
2018-08-18T17:01:42.501Z,100595.83
2018-08-18T17:04:24.725Z,100596.94
2018-08-18T17:06:58.235Z,100599.23
2018-08-18T17:09:42.016Z,100597.88
2018-08-18T17:12:34.203Z,100595.72
2018-08-18T17:15:07.156Z,100591.41
2018-08-18T17:17:40.235Z,100580.33
2018-08-18T17:20:13.490Z,100578.11
2018-08-18T17:22:47.527Z,100582.17
2018-08-18T17:25:20.410Z,100584.08
2018-08-18T17:27:53.274Z,100580.27
2018-08-18T17:30:26.191Z,100571.34
2018-08-18T17:32:59.373Z,100563.21
2018-08-18T17:35:33.066Z,100550.29
2018-08-18T17:38:06.082Z,100550.05
2018-08-18T17:40:39.070Z,100552.02
2018-08-18T17:43:11.991Z,100549.31
2018-08-18T17:46:04.437Z,100545.56
2018-08-18T17:48:43.316Z,100541.53
2018-08-18T17:51:17.087Z,100540.49
2018-08-18T17:53:54.739Z,100533.16
2018-08-18T17:56:27.590Z,100522.09
2018-08-18T17:59:00.589Z,100519.14
2018-08-18T18:01:33.998Z,100522.71
2018-08-18T18:04:06.882Z,100523.51
2018-08-18T18:06:39.866Z,100525.42
2018-08-18T18:09:12.880Z,100523.58
2018-08-18T18:11:45.891Z,100519.02
2018-08-18T18:14:18.810Z,100511.52
2018-08-18T18:16:51.891Z,100507.70
2018-08-18T18:19:24.817Z,100502.05
2018-08-18T18:21:57.821Z,100507.46
2018-08-18T18:24:39.581Z,100506.34
2018-08-18T18:27:12.447Z,100507.22
2018-08-18T18:29:46.971Z,100508.57
2018-08-18T18:32:19.906Z,100510.17
2018-08-18T18:34:52.848Z,100505.37
2018-08-18T18:37:25.821Z,100510.79
2018-08-18T18:40:05.464Z,100509.68
2018-08-18T18:42:38.355Z,100505.69
2018-08-18T18:45:12.674Z,100494.05
2018-08-18T18:47:48.300Z,100496.27
2018-08-18T18:50:21.863Z,100491.73
2018-08-18T18:55:31.824Z,100485.06
2018-08-18T18:58:15.332Z,100488.11
2018-08-18T19:00:58.051Z,100482.45
2018-08-18T19:03:30.980Z,100469.84
2018-08-18T19:06:03.946Z,100463.45
2018-08-18T19:08:39.826Z,100457.63
2018-08-18T19:11:12.690Z,100456.12
2018-08-18T19:13:45.553Z,100454.65
2018-08-18T19:16:18.509Z,100447.22
2018-08-18T19:18:51.524Z,100446.17
2018-08-18T19:21:24.467Z,100436.21
2018-08-18T19:23:57.462Z,100438.39
2018-08-18T19:26:35.005Z,100439.26
2018-08-18T19:29:07.894Z,100432.00
2018-08-18T19:31:40.786Z,100434.70
2018-08-18T19:34:17.201Z,100442.27
2018-08-18T19:37:02.386Z,100442.83
2018-08-18T19:39:37.739Z,100446.08
2018-08-18T19:42:15.584Z,100443.75
2018-08-18T19:44:50.862Z,100448.36
2018-08-18T19:47:28.159Z,100451.00
2018-08-18T19:50:01.177Z,100455.06
2018-08-18T19:52:34.245Z,100459.42
2018-08-18T19:55:07.820Z,100458.38
2018-08-18T19:57:41.595Z,100464.84
2018-08-18T20:00:20.951Z,100461.27
2018-08-18T20:02:59.353Z,100455.86
2018-08-18T20:05:33.460Z,100456.11
2018-08-18T20:08:06.481Z,100451.43
2018-08-18T20:11:01.556Z,100451.92
2018-08-18T20:13:34.708Z,100451.92
2018-08-18T20:16:07.875Z,100445.12
2018-08-18T20:18:41.051Z,100447.03
2018-08-18T20:29:17.810Z,100458.44
2018-08-18T20:32:06.186Z,100459.30
2018-08-18T20:34:39.161Z,100455.86
2018-08-18T20:37:12.136Z,100453.40
2018-08-18T20:39:44.961Z,100454.75
2018-08-18T20:42:18.328Z,100460.16
2018-08-18T20:44:52.193Z,100443.69
2018-08-18T20:47:25.160Z,100432.87
2018-08-18T20:49:58.546Z,100425.61
2018-08-18T20:52:31.753Z,100427.45
2018-08-18T20:55:05.661Z,100427.45
2018-08-18T20:57:38.619Z,100426.10
2018-08-18T21:00:14.147Z,100421.55
2018-08-18T21:02:47.086Z,100426.41
2018-08-18T21:05:20.077Z,100417.56
2018-08-18T21:07:52.977Z,100421.06
2018-08-18T21:10:26.345Z,100424.08
2018-08-18T21:13:00.296Z,100421.06
2018-08-18T21:15:33.291Z,100417.56
2018-08-18T21:18:10.281Z,100416.83
2018-08-18T21:20:43.193Z,100421.44
2018-08-18T21:23:16.101Z,100421.44
2018-08-18T21:25:53.005Z,100418.23
2018-08-18T21:28:28.942Z,100416.89
2018-08-18T21:31:01.835Z,100426.38
2018-08-18T21:33:35.816Z,100420.98
2018-08-18T21:36:09.425Z,100424.23
2018-08-18T21:38:42.299Z,100434.25
2018-08-18T21:41:15.291Z,100433.70
2018-08-18T21:43:49.231Z,100436.66
2018-08-18T21:46:22.077Z,100432.10
2018-08-18T21:48:57.420Z,100429.09
2018-08-18T21:51:30.317Z,100431.00
2018-08-18T21:54:03.214Z,100426.17
2018-08-18T21:56:40.350Z,100430.78
2018-08-18T21:59:15.725Z,100434.28
2018-08-18T22:01:48.569Z,100431.05
2018-08-18T22:04:21.506Z,100439.69
2018-08-18T22:06:54.404Z,100436.98
2018-08-18T22:09:33.361Z,100431.86
2018-08-18T22:12:06.314Z,100428.05
2018-08-18T22:14:39.292Z,100432.10
2018-08-18T22:17:12.750Z,100440.22
2018-08-18T22:19:45.823Z,100449.44
2018-08-18T22:22:23.077Z,100451.28
2018-08-18T22:24:56.847Z,100449.06
2018-08-18T22:27:29.744Z,100449.59
2018-08-18T22:30:02.677Z,100450.70
2018-08-18T22:32:35.569Z,100451.25
2018-08-18T22:35:08.718Z,100456.11
2018-08-18T22:37:41.762Z,100458.28
2018-08-18T22:40:15.605Z,100453.98
2018-08-18T22:42:48.498Z,100461.30
2018-08-18T22:45:29.623Z,100460.03
2018-08-18T22:48:02.556Z,100462.19
2018-08-18T22:50:35.386Z,100465.14
2018-08-18T22:53:08.312Z,100460.84
2018-08-18T22:55:41.903Z,100461.70
2018-08-18T22:58:15.190Z,100465.25
2018-08-18T23:00:52.059Z,100457.39
2018-08-18T23:03:25.033Z,100464.89
2018-08-18T23:05:58.276Z,100468.70
2018-08-18T23:08:31.123Z,100472.81
2018-08-18T23:11:04.019Z,100477.42
2018-08-18T23:13:36.906Z,100482.83
2018-08-18T23:16:09.899Z,100489.10
2018-08-18T23:18:42.775Z,100482.83
2018-08-18T23:21:22.838Z,100480.13
2018-08-18T23:23:55.794Z,100487.02
2018-08-18T23:26:28.835Z,100494.09
2018-08-18T23:29:01.793Z,100497.84
2018-08-18T23:31:34.872Z,100501.37
2018-08-18T23:34:08.059Z,100490.00
2018-08-18T23:36:41.310Z,100495.05
2018-08-18T23:39:16.656Z,100487.21
2018-08-18T23:41:50.078Z,100493.11
2018-08-18T23:44:23.521Z,100494.16
2018-08-18T23:46:57.053Z,100495.45
2018-08-18T23:49:31.681Z,100501.84
2018-08-18T23:52:06.222Z,100506.95
2018-08-18T23:54:40.027Z,100508.48
2018-08-18T23:57:14.017Z,100513.88
2018-08-18T23:59:47.785Z,100508.95
